createdAt,value
2023-05-22T00:00:45.552Z,4.30
2023-05-22T00:03:13.012Z,4.78
2023-05-22T00:05:41.272Z,4.60
2023-05-22T00:08:11.606Z,5.22
2023-05-22T00:10:40.673Z,4.82
2023-05-22T00:13:08.212Z,4.50
2023-05-22T00:15:35.708Z,4.15
2023-05-22T00:18:03.972Z,3.92
2023-05-22T00:20:31.469Z,5.07
2023-05-22T00:23:01.242Z,4.22
2023-05-22T00:25:28.702Z,3.83
2023-05-22T00:27:57.529Z,3.65
2023-05-22T00:30:24.974Z,3.70
2023-05-22T00:32:52.474Z,3.70
2023-05-22T00:35:20.017Z,4.90
2023-05-22T00:37:47.426Z,4.03
2023-05-22T00:40:16.552Z,4.00
2023-05-22T00:42:44.498Z,4.53
2023-05-22T00:45:14.991Z,5.10
2023-05-22T00:47:42.625Z,4.43
2023-05-22T00:50:11.541Z,4.97
2023-05-22T00:52:42.071Z,4.70
2023-05-22T00:55:11.452Z,4.43
2023-05-22T00:57:40.293Z,4.45
2023-05-22T01:00:10.690Z,3.92
2023-05-22T01:02:39.788Z,4.13
2023-05-22T01:05:08.233Z,4.05
2023-05-22T01:07:37.772Z,4.22
2023-05-22T01:10:07.114Z,4.47
2023-05-22T01:12:43.869Z,3.90
2023-05-22T01:15:22.286Z,4.00
2023-05-22T01:18:01.651Z,4.38
2023-05-22T01:20:32.985Z,3.92
2023-05-22T01:23:48.320Z,3.88
2023-05-22T01:26:53.966Z,3.97
2023-05-22T01:29:41.552Z,4.57
2023-05-22T01:32:11.616Z,4.38
2023-05-22T01:34:41.526Z,4.22
2023-05-22T01:37:11.196Z,4.40
2023-05-22T01:39:39.926Z,4.78
2023-05-22T01:42:08.180Z,4.47
2023-05-22T01:44:35.629Z,4.40
2023-05-22T01:47:05.336Z,3.70
2023-05-22T01:49:35.872Z,4.05
2023-05-22T01:52:12.244Z,3.55
2023-05-22T01:54:45.375Z,4.70
2023-05-22T01:57:17.035Z,4.57
2023-05-22T01:59:49.601Z,3.78
2023-05-22T02:02:20.008Z,4.07
2023-05-22T02:04:53.792Z,3.33
2023-05-22T02:07:24.933Z,4.30
2023-05-22T02:09:54.740Z,4.18
2023-05-22T02:12:23.463Z,4.25
2023-05-22T02:14:51.363Z,3.53
2023-05-22T02:17:19.011Z,4.30
2023-05-22T02:19:46.500Z,4.20
2023-05-22T02:22:15.286Z,3.88
2023-05-22T02:24:45.068Z,4.00
2023-05-22T02:27:12.850Z,3.25
2023-05-22T02:29:40.762Z,4.47
2023-05-22T02:32:09.065Z,3.42
2023-05-22T02:34:37.807Z,3.45
2023-05-22T02:37:06.093Z,4.10
2023-05-22T02:39:34.847Z,4.00
2023-05-22T02:42:02.259Z,4.00
2023-05-22T02:44:29.692Z,3.10
2023-05-22T02:46:57.259Z,4.38
2023-05-22T02:49:24.907Z,3.75
2023-05-22T02:51:52.402Z,4.03
2023-05-22T02:54:19.814Z,3.88
2023-05-22T02:56:48.569Z,3.65
2023-05-22T02:59:16.477Z,3.92
2023-05-22T03:01:44.314Z,4.13
2023-05-22T03:04:12.804Z,4.47
2023-05-22T03:06:40.442Z,4.00
2023-05-22T03:09:08.721Z,4.80
2023-05-22T03:11:36.137Z,4.40
2023-05-22T03:14:04.882Z,3.88
2023-05-22T03:16:32.828Z,4.32
2023-05-22T03:19:09.648Z,4.13
2023-05-22T03:21:37.407Z,4.50
2023-05-22T03:24:05.476Z,5.25
2023-05-22T03:26:33.063Z,3.53
2023-05-22T03:29:00.571Z,3.95
2023-05-22T03:31:31.369Z,4.53
2023-05-22T03:33:58.849Z,3.83
2023-05-22T03:36:26.428Z,4.47
2023-05-22T03:38:54.263Z,4.03
2023-05-22T03:41:22.279Z,4.60
2023-05-22T03:43:49.722Z,3.88
2023-05-22T03:46:17.429Z,3.47
2023-05-22T03:48:46.243Z,4.72
2023-05-22T03:51:13.873Z,4.97
2023-05-22T03:53:41.324Z,4.28
2023-05-22T03:56:08.812Z,4.63
2023-05-22T03:58:36.211Z,5.40
2023-05-22T04:01:04.241Z,4.03
2023-05-22T04:03:31.768Z,4.32
2023-05-22T04:06:00.635Z,5.05
2023-05-22T04:08:28.085Z,4.72
2023-05-22T04:10:55.577Z,5.05
2023-05-22T04:13:23.061Z,4.25
2023-05-22T04:15:52.691Z,4.68
2023-05-22T04:18:20.213Z,4.45
2023-05-22T04:20:47.612Z,4.20
2023-05-22T04:23:16.358Z,4.38
2023-05-22T04:25:44.546Z,4.50
2023-05-22T04:28:13.018Z,3.95
2023-05-22T04:30:41.094Z,4.68
2023-05-22T04:33:08.744Z,3.92
2023-05-22T04:35:36.205Z,3.97
2023-05-22T04:38:03.809Z,3.88
2023-05-22T04:40:33.487Z,3.38
2023-05-22T04:43:01.557Z,4.18
2023-05-22T04:45:29.535Z,3.90
2023-05-22T04:47:57.181Z,5.28
2023-05-22T04:50:24.888Z,3.40
2023-05-22T04:52:53.418Z,4.28
2023-05-22T04:55:22.201Z,4.07
2023-05-22T04:57:52.674Z,4.00
2023-05-22T05:00:26.334Z,3.80
2023-05-22T05:02:54.261Z,4.10
2023-05-22T05:05:22.129Z,4.25
2023-05-22T05:07:50.606Z,3.65
2023-05-22T05:10:18.453Z,3.97
2023-05-22T05:12:45.971Z,4.28
2023-05-22T05:15:15.214Z,3.53
2023-05-22T05:17:42.705Z,3.65
2023-05-22T05:20:14.320Z,4.25
2023-05-22T05:22:43.947Z,4.10
2023-05-22T05:25:12.019Z,4.60
2023-05-22T05:27:39.826Z,3.38
2023-05-22T05:30:08.623Z,3.88
2023-05-22T05:32:37.487Z,4.13
2023-05-22T05:35:05.639Z,3.78
2023-05-22T05:37:33.033Z,4.13
2023-05-22T05:40:00.497Z,3.63
2023-05-22T05:42:27.965Z,3.65
2023-05-22T05:44:55.362Z,4.22
2023-05-22T05:47:24.106Z,3.45
2023-05-22T05:49:53.040Z,4.53
2023-05-22T05:52:20.922Z,3.65
2023-05-22T05:54:49.009Z,3.45
2023-05-22T05:57:16.553Z,4.38
2023-05-22T05:59:44.005Z,4.05
2023-05-22T06:02:11.822Z,3.67
2023-05-22T06:04:39.294Z,4.18
2023-05-22T06:07:08.045Z,4.38
2023-05-22T06:09:36.246Z,3.63
2023-05-22T06:12:04.302Z,3.42
2023-05-22T06:14:31.714Z,3.25
2023-05-22T06:16:59.185Z,4.25
2023-05-22T06:19:26.789Z,3.83
2023-05-22T06:21:54.264Z,3.50
2023-05-22T06:24:23.043Z,4.03
2023-05-22T06:26:50.633Z,2.97
2023-05-22T06:29:18.114Z,3.80
2023-05-22T06:31:45.623Z,3.13
2023-05-22T06:34:13.256Z,3.63
2023-05-22T06:36:40.756Z,3.08
2023-05-22T06:39:08.648Z,3.17
2023-05-22T06:41:37.818Z,3.00
2023-05-22T06:44:06.471Z,3.22
2023-05-22T06:46:33.959Z,2.92
2023-05-22T06:49:01.829Z,3.80
2023-05-22T06:51:29.437Z,3.28
2023-05-22T06:53:57.397Z,2.88
2023-05-22T06:56:25.382Z,2.97
2023-05-22T06:58:54.169Z,3.13
2023-05-22T07:01:21.762Z,2.97
2023-05-22T07:03:49.408Z,3.03
2023-05-22T07:06:17.129Z,3.45
2023-05-22T07:08:44.659Z,2.83
2023-05-22T07:11:12.118Z,2.80
2023-05-22T07:13:39.566Z,3.00
2023-05-22T07:16:08.901Z,3.00
2023-05-22T07:18:36.381Z,2.83
2023-05-22T07:21:03.919Z,2.38
2023-05-22T07:23:31.368Z,2.78
2023-05-22T07:25:58.800Z,2.90
2023-05-22T07:28:26.640Z,2.58
2023-05-22T07:30:54.128Z,2.55
2023-05-22T07:33:23.379Z,2.08
2023-05-22T07:35:51.859Z,2.40
2023-05-22T07:38:19.819Z,2.35
2023-05-22T07:40:47.260Z,2.53
2023-05-22T07:43:15.332Z,2.75
2023-05-22T07:45:44.145Z,2.20
2023-05-22T07:48:11.872Z,2.35
2023-05-22T07:50:44.734Z,2.63
2023-05-22T07:53:12.624Z,2.20
2023-05-22T07:55:40.754Z,2.15
2023-05-22T07:58:10.332Z,2.55
2023-05-22T08:00:37.966Z,2.65
2023-05-22T08:03:05.909Z,3.00
2023-05-22T08:05:33.428Z,2.45
2023-05-22T08:08:02.907Z,2.25
2023-05-22T08:10:46.467Z,2.17
2023-05-22T08:13:16.692Z,1.90
2023-05-22T08:15:44.159Z,2.50
2023-05-22T08:18:11.706Z,2.65
2023-05-22T08:20:39.558Z,2.60
2023-05-22T08:23:08.464Z,2.08
2023-05-22T08:25:35.899Z,2.67
2023-05-22T08:28:03.478Z,2.25
2023-05-22T08:30:31.118Z,2.53
2023-05-22T08:32:58.548Z,2.47
2023-05-22T08:35:26.103Z,1.88
2023-05-22T08:37:53.653Z,2.00
2023-05-22T08:40:23.107Z,2.30
2023-05-22T08:42:54.323Z,2.13
2023-05-22T08:45:21.964Z,2.40
2023-05-22T08:47:53.638Z,2.03
2023-05-22T08:50:21.304Z,2.35
2023-05-22T08:52:52.216Z,2.50
2023-05-22T08:55:21.761Z,2.10
2023-05-22T08:57:50.660Z,2.58
2023-05-22T09:00:19.460Z,2.08
2023-05-22T09:02:48.559Z,2.60
2023-05-22T09:05:17.510Z,2.35
2023-05-22T09:07:45.810Z,2.47
2023-05-22T09:10:14.478Z,2.63
2023-05-22T09:13:05.065Z,3.00
2023-05-22T09:15:33.254Z,3.13
2023-05-22T09:18:01.114Z,2.40
2023-05-22T09:20:28.605Z,2.50
2023-05-22T09:22:56.684Z,2.97
2023-05-22T09:25:24.541Z,2.63
2023-05-22T09:27:51.987Z,2.58
2023-05-22T09:30:21.440Z,3.20
2023-05-22T09:32:49.750Z,3.10
2023-05-22T09:35:17.283Z,2.72
2023-05-22T09:37:44.761Z,3.00
2023-05-22T09:40:14.082Z,2.65
2023-05-22T09:42:45.686Z,3.08
2023-05-22T09:45:13.506Z,3.10
2023-05-22T09:47:42.320Z,3.22
2023-05-22T09:50:10.834Z,3.05
2023-05-22T09:52:38.895Z,3.00
2023-05-22T09:55:08.660Z,3.17
2023-05-22T09:57:42.938Z,2.95
2023-05-22T10:00:17.857Z,2.90
2023-05-22T10:02:47.933Z,2.03
2023-05-22T10:05:21.588Z,2.55
2023-05-22T10:07:51.764Z,2.88
2023-05-22T10:10:22.451Z,2.60
2023-05-22T10:12:59.101Z,2.97
2023-05-22T10:15:28.041Z,2.70
2023-05-22T10:17:57.937Z,2.63
2023-05-22T10:20:26.810Z,2.60
2023-05-22T10:22:55.720Z,2.67
2023-05-22T10:25:23.916Z,2.15
2023-05-22T10:27:53.816Z,2.72
2023-05-22T10:30:29.137Z,3.10
2023-05-22T10:33:05.638Z,2.33
2023-05-22T10:35:42.146Z,2.65
2023-05-22T10:38:38.238Z,2.35
2023-05-22T10:41:06.413Z,2.17
2023-05-22T10:43:33.964Z,2.35
2023-05-22T10:46:05.615Z,3.13
2023-05-22T10:48:39.898Z,2.35
2023-05-22T10:51:08.266Z,2.67
2023-05-22T10:53:36.865Z,2.17
2023-05-22T10:56:11.837Z,2.47
2023-05-22T10:58:39.500Z,2.40
2023-05-22T11:01:12.880Z,2.30
2023-05-22T11:03:59.050Z,2.03
2023-05-22T11:06:35.454Z,2.40
2023-05-22T11:09:18.746Z,2.53
2023-05-22T11:11:47.611Z,2.03
2023-05-22T11:14:17.781Z,2.58
2023-05-22T11:16:45.416Z,2.63
2023-05-22T11:19:23.205Z,2.13
2023-05-22T11:21:51.731Z,2.40
2023-05-22T11:24:19.368Z,2.22
2023-05-22T11:27:02.635Z,2.97
2023-05-22T11:29:31.357Z,2.47
2023-05-22T11:31:59.442Z,2.40
2023-05-22T11:34:28.746Z,1.95
2023-05-22T11:36:58.978Z,2.80
2023-05-22T11:39:26.455Z,2.60
2023-05-22T11:41:54.332Z,2.08
2023-05-22T11:44:21.789Z,2.72
2023-05-22T11:46:49.510Z,2.67
2023-05-22T11:49:17.308Z,2.30
2023-05-22T11:51:46.198Z,2.17
2023-05-22T11:54:13.684Z,2.65
2023-05-22T11:56:41.096Z,2.10
2023-05-22T11:59:08.546Z,2.90
2023-05-22T12:01:36.316Z,2.28
2023-05-22T12:04:03.834Z,2.80
2023-05-22T12:06:33.422Z,2.50
2023-05-22T12:09:02.925Z,2.05
2023-05-22T12:11:35.621Z,2.75
2023-05-22T12:14:05.192Z,2.30
2023-05-22T12:16:35.483Z,2.28
2023-05-22T12:19:06.260Z,2.45
2023-05-22T12:21:33.726Z,2.28
2023-05-22T12:24:06.122Z,2.25
2023-05-22T12:26:34.230Z,2.80
2023-05-22T12:29:02.622Z,2.35
2023-05-22T12:31:36.779Z,2.70
2023-05-22T12:34:07.263Z,2.70
2023-05-22T12:36:35.862Z,2.63
2023-05-22T12:39:10.296Z,2.40
2023-05-22T12:41:37.817Z,2.53
2023-05-22T12:44:05.757Z,2.30
2023-05-22T12:46:33.749Z,2.45
2023-05-22T12:49:02.010Z,2.28
2023-05-22T12:51:31.245Z,2.60
2023-05-22T12:53:59.111Z,2.90
2023-05-22T12:56:27.977Z,2.55
2023-05-22T12:58:55.872Z,2.33
2023-05-22T13:01:24.374Z,2.60
2023-05-22T13:03:52.857Z,2.38
2023-05-22T13:06:20.607Z,2.20
2023-05-22T13:08:48.054Z,2.55
2023-05-22T13:11:15.497Z,2.53
2023-05-22T13:13:44.275Z,2.65
2023-05-22T13:16:12.089Z,2.60
2023-05-22T13:18:39.570Z,2.25
2023-05-22T13:21:07.026Z,2.80
2023-05-22T13:23:34.541Z,2.55
2023-05-22T13:26:03.126Z,2.42
2023-05-22T13:28:30.615Z,2.80
2023-05-22T13:30:59.861Z,3.15
2023-05-22T13:33:27.305Z,2.65
2023-05-22T13:35:54.861Z,2.72
2023-05-22T13:38:22.299Z,2.58
2023-05-22T13:40:49.788Z,3.05
2023-05-22T13:43:17.257Z,2.50
2023-05-22T13:45:44.721Z,2.53
2023-05-22T13:48:13.682Z,2.08
2023-05-22T13:50:41.278Z,2.78
2023-05-22T13:53:08.857Z,2.42
2023-05-22T13:55:36.416Z,2.67
2023-05-22T13:58:04.856Z,2.80
2023-05-22T14:00:32.293Z,2.67
2023-05-22T14:02:59.905Z,2.70
2023-05-22T14:05:28.789Z,2.50
2023-05-22T14:07:56.839Z,2.15
2023-05-22T14:10:24.505Z,2.28
2023-05-22T14:12:51.894Z,2.65
2023-05-22T14:15:19.356Z,2.20
2023-05-22T14:17:47.959Z,2.65
2023-05-22T14:20:15.402Z,2.85
2023-05-22T14:22:56.447Z,2.72
2023-05-22T14:25:25.655Z,2.63
2023-05-22T14:27:53.103Z,2.33
2023-05-22T14:30:20.748Z,2.20
2023-05-22T14:32:48.729Z,3.55
2023-05-22T14:35:16.731Z,2.10
2023-05-22T14:37:46.908Z,2.25
2023-05-22T14:40:14.330Z,2.95
2023-05-22T14:42:41.814Z,3.05
2023-05-22T14:45:09.912Z,2.47
2023-05-22T14:47:37.392Z,2.42
2023-05-22T14:50:18.190Z,2.22
2023-05-22T14:52:49.414Z,2.15
2023-05-22T14:55:17.397Z,2.47
2023-05-22T14:57:45.370Z,2.38
2023-05-22T15:00:15.286Z,2.25
2023-05-22T15:02:42.802Z,2.45
2023-05-22T15:05:10.671Z,2.33
2023-05-22T15:07:44.459Z,2.00
2023-05-22T15:10:14.584Z,2.60
2023-05-22T15:12:42.054Z,2.33
2023-05-22T15:15:10.289Z,1.90
2023-05-22T15:17:38.869Z,2.28
2023-05-22T15:20:09.221Z,2.08
2023-05-22T15:22:36.718Z,2.67
2023-05-22T15:25:05.691Z,1.80
2023-05-22T15:27:35.781Z,2.33
2023-05-22T15:30:04.227Z,2.15
2023-05-22T15:32:32.828Z,2.20
2023-05-22T15:35:00.409Z,2.50
2023-05-22T15:37:29.171Z,2.10
2023-05-22T15:39:58.299Z,2.05
2023-05-22T15:42:25.765Z,1.75
2023-05-22T15:44:54.570Z,1.90
2023-05-22T15:47:25.307Z,2.40
2023-05-22T15:49:52.819Z,2.05
2023-05-22T15:52:22.427Z,1.85
2023-05-22T15:54:49.962Z,1.75
2023-05-22T15:57:17.595Z,2.15
2023-05-22T15:59:47.092Z,2.17
2023-05-22T16:02:15.908Z,1.67
2023-05-22T16:04:43.359Z,1.65
2023-05-22T16:07:11.241Z,2.22
2023-05-22T16:09:38.807Z,1.83
2023-05-22T16:12:07.014Z,1.95
2023-05-22T16:14:34.419Z,1.98
2023-05-22T16:17:01.838Z,1.60
2023-05-22T16:19:30.803Z,1.45
2023-05-22T16:21:58.264Z,1.90
2023-05-22T16:24:26.176Z,1.80
2023-05-22T16:26:53.791Z,2.08
2023-05-22T16:29:21.414Z,1.92
2023-05-22T16:31:49.122Z,2.22
2023-05-22T16:34:16.652Z,1.60
2023-05-22T16:36:45.837Z,1.80
2023-05-22T16:39:13.438Z,1.77
2023-05-22T16:41:40.881Z,1.77
2023-05-22T16:44:08.336Z,1.77
2023-05-22T16:46:35.929Z,2.00
2023-05-22T16:49:03.481Z,1.75
2023-05-22T16:51:31.191Z,1.67
2023-05-22T16:53:59.952Z,1.88
2023-05-22T16:56:27.570Z,1.50
2023-05-22T16:58:54.982Z,2.13
2023-05-22T17:01:25.800Z,2.13
2023-05-22T17:03:53.288Z,1.73
2023-05-22T17:06:21.208Z,1.98
2023-05-22T17:08:48.811Z,1.83
2023-05-22T17:11:17.557Z,1.85
2023-05-22T17:13:44.973Z,2.58
2023-05-22T17:16:12.441Z,1.92
2023-05-22T17:18:40.470Z,1.95
2023-05-22T17:21:09.075Z,2.35
2023-05-22T17:23:37.316Z,2.50
2023-05-22T17:26:05.078Z,1.90
2023-05-22T17:28:33.814Z,2.22
2023-05-22T17:31:01.516Z,1.80
2023-05-22T17:33:29.033Z,2.25
2023-05-22T17:35:56.494Z,2.22
2023-05-22T17:38:23.962Z,1.77
2023-05-22T17:40:52.066Z,1.42
2023-05-22T17:43:19.940Z,1.77
2023-05-22T17:45:50.582Z,1.48
2023-05-22T17:48:21.506Z,1.63
2023-05-22T17:50:49.537Z,2.28
2023-05-22T17:53:19.672Z,2.13
2023-05-22T17:55:48.198Z,1.70
2023-05-22T17:58:16.196Z,1.73
2023-05-22T18:00:43.790Z,1.58
2023-05-22T18:03:12.838Z,1.45
2023-05-22T18:05:40.429Z,2.22
2023-05-22T18:08:07.902Z,1.88
2023-05-22T18:10:35.303Z,1.63
2023-05-22T18:13:04.728Z,1.60
2023-05-22T18:15:32.868Z,2.35
2023-05-22T18:18:00.450Z,2.08
2023-05-22T18:20:29.412Z,1.83
2023-05-22T18:22:56.880Z,1.60
2023-05-22T18:25:24.500Z,1.90
2023-05-22T18:27:51.939Z,1.92
2023-05-22T18:30:19.345Z,2.30
2023-05-22T18:32:48.735Z,2.50
2023-05-22T18:35:16.423Z,2.13
2023-05-22T18:37:45.246Z,2.22
2023-05-22T18:40:13.850Z,1.80
2023-05-22T18:42:44.703Z,2.00
2023-05-22T18:45:12.543Z,2.33
2023-05-22T18:47:40.133Z,2.08
2023-05-22T18:50:08.823Z,1.90
2023-05-22T18:52:37.065Z,1.90
2023-05-22T18:55:06.724Z,1.83
2023-05-22T18:57:34.438Z,1.63
2023-05-22T19:00:01.865Z,2.13
2023-05-22T19:02:29.345Z,1.83
2023-05-22T19:04:56.832Z,1.45
2023-05-22T19:07:24.272Z,2.00
2023-05-22T19:09:51.771Z,1.88
2023-05-22T19:12:20.529Z,1.67
2023-05-22T19:14:49.603Z,1.73
2023-05-22T19:17:17.148Z,1.48
2023-05-22T19:19:44.663Z,2.00
2023-05-22T19:22:12.125Z,1.50
2023-05-22T19:24:39.664Z,1.80
2023-05-22T19:27:07.156Z,2.03
2023-05-22T19:29:35.919Z,1.67
2023-05-22T19:32:03.450Z,1.90
2023-05-22T19:34:30.930Z,1.52
2023-05-22T19:36:58.449Z,2.40
2023-05-22T19:39:26.004Z,2.17
2023-05-22T19:41:54.454Z,2.30
2023-05-22T19:44:22.344Z,2.30
2023-05-22T19:46:54.699Z,1.80
2023-05-22T19:49:22.321Z,1.98
2023-05-22T19:51:49.849Z,1.77
2023-05-22T19:54:17.438Z,2.22
2023-05-22T19:56:44.949Z,1.60
2023-05-22T19:59:12.500Z,2.00
2023-05-22T20:01:39.963Z,2.35
2023-05-22T20:04:08.860Z,1.85
2023-05-22T20:06:36.371Z,1.83
2023-05-22T20:09:05.793Z,2.17
2023-05-22T20:11:33.213Z,1.70
2023-05-22T20:14:02.418Z,1.80
2023-05-22T20:16:30.050Z,1.75
2023-05-22T20:18:57.579Z,1.90
2023-05-22T20:21:26.377Z,1.83
2023-05-22T20:23:55.422Z,1.40
2023-05-22T20:26:22.976Z,2.00
2023-05-22T20:28:50.881Z,1.50
2023-05-22T20:31:18.409Z,1.75
2023-05-22T20:33:45.892Z,1.95
2023-05-22T20:36:16.433Z,1.70
2023-05-22T20:38:45.236Z,1.83
2023-05-22T20:41:13.704Z,1.90
2023-05-22T20:43:43.125Z,1.90
2023-05-22T20:46:11.195Z,1.50
2023-05-22T20:48:38.987Z,1.85
2023-05-22T20:51:06.564Z,2.22
2023-05-22T20:53:33.990Z,1.75
2023-05-22T20:56:02.754Z,1.55
2023-05-22T20:58:30.175Z,1.92
2023-05-22T21:00:57.602Z,1.70
2023-05-22T21:03:25.995Z,2.47
2023-05-22T21:05:53.624Z,1.67
2023-05-22T21:08:21.640Z,1.80
2023-05-22T21:10:49.104Z,1.73
2023-05-22T21:13:17.915Z,1.58
2023-05-22T21:15:45.374Z,1.58
2023-05-22T21:18:12.934Z,1.63
2023-05-22T21:20:40.611Z,1.83
2023-05-22T21:23:08.313Z,2.00
2023-05-22T21:25:36.398Z,1.90
2023-05-22T21:28:03.945Z,2.20
2023-05-22T21:30:32.705Z,2.15
2023-05-22T21:33:01.008Z,1.80
2023-05-22T21:35:28.492Z,1.73
2023-05-22T21:37:55.920Z,1.60
2023-05-22T21:40:23.535Z,1.92
2023-05-22T21:42:51.040Z,1.70
2023-05-22T21:45:18.771Z,2.20
2023-05-22T21:47:47.549Z,1.95
2023-05-22T21:50:15.159Z,1.98
2023-05-22T21:52:44.148Z,2.00
2023-05-22T21:55:11.634Z,2.08
2023-05-22T21:57:39.700Z,1.75
2023-05-22T22:00:08.431Z,1.80
2023-05-22T22:02:35.960Z,2.13
2023-05-22T22:05:05.286Z,1.90
2023-05-22T22:07:32.743Z,1.98
2023-05-22T22:10:00.593Z,2.50
2023-05-22T22:12:28.067Z,2.08
2023-05-22T22:14:55.539Z,2.20
2023-05-22T22:17:23.951Z,1.92
2023-05-22T22:19:53.384Z,2.10
2023-05-22T22:22:22.782Z,2.13
2023-05-22T22:24:50.711Z,2.50
2023-05-22T22:27:19.626Z,1.75
2023-05-22T22:29:47.036Z,1.95
2023-05-22T22:32:14.599Z,2.38
2023-05-22T22:34:43.077Z,2.33
2023-05-22T22:37:11.088Z,1.90
2023-05-22T22:39:40.119Z,1.92
2023-05-22T22:42:08.214Z,1.98
2023-05-22T22:44:35.643Z,2.00
2023-05-22T22:47:04.566Z,2.00
2023-05-22T22:49:32.695Z,2.42
2023-05-22T22:52:00.758Z,2.38
2023-05-22T22:54:28.366Z,2.33
2023-05-22T22:56:57.293Z,1.98
2023-05-22T22:59:24.733Z,2.15
2023-05-22T23:01:52.233Z,2.20
2023-05-22T23:04:19.849Z,2.20
2023-05-22T23:06:47.361Z,3.28
2023-05-22T23:09:15.632Z,2.30
2023-05-22T23:11:43.079Z,1.88
2023-05-22T23:14:11.800Z,2.47
2023-05-22T23:16:41.223Z,2.50
2023-05-22T23:19:10.310Z,2.13
2023-05-22T23:21:37.794Z,2.60
2023-05-22T23:24:05.937Z,2.13
2023-05-22T23:26:34.329Z,2.47
2023-05-22T23:29:02.195Z,3.00
2023-05-22T23:31:31.237Z,2.13
2023-05-22T23:33:59.423Z,1.95
2023-05-22T23:36:26.850Z,2.25
2023-05-22T23:38:54.258Z,2.10
2023-05-22T23:41:21.805Z,2.80
2023-05-22T23:43:49.224Z,2.08
2023-05-22T23:46:16.694Z,1.83
2023-05-22T23:48:45.456Z,2.45
2023-05-22T23:51:14.426Z,2.10
2023-05-22T23:53:42.419Z,2.42
2023-05-22T23:56:10.341Z,2.15
2023-05-22T23:58:38.192Z,2.35
